CHIUDI BANNER

Seguici su twitter Seguici su facebook
LIVE Streaming HD
Get Adobe Flash player
Animazione Masse d'Aria e Nubi
satellite e T nubi
DNA SURF SHOP
Consigli pubblicitari di Google
Dati meteo stazione (refresh automatico ogni minuto)
Ostia VENTO: VELOCITÀ   PIOGGIA: QTA GIORNO TEMPERATURA: ATTUALE
SPOT: Kursaal Lido Ostia ---- Posizione su Googlemap:Latitudine: 41.71N Longitudine: 12.31E RAFFICA MASSIMA: QTA MENSILE: MASSIMA:
VELOCITÀ MEDIA: QTA ANNUALE: MINIMA:
DIREZIONE: UMIDITÀ: WIND CHILL:
TIPO: DEW POINT:
BEAUFORT: PRESSIONE:
I nostri partner
Ostia nelle ultime ore
Applica filtri in visualizzazione Intervallo delle letture nelle ultime

Ora Direzione Vento Velocita' Vento Media Vento Raffica Max. Temperatura Wind Chill Pioggia Pressione
15:29:04293 °(WNW)9.6 Kts13 Kts17.4 Kts26.6 °C24.4 °C0 mm1010.2 Hpa
15:24:24266 °(W)13 Kts12.2 Kts17.4 Kts26.7 °C24.7 °C0 mm1010.2 Hpa
15:19:08258 °(WSW)9.6 Kts12.2 Kts17.4 Kts26.6 °C24.5 °C0 mm1010.2 Hpa
15:14:25276 °(W)12.2 Kts12.2 Kts17.4 Kts26.5 °C24.4 °C0 mm1010.3 Hpa
15:09:12270 °(W)8.7 Kts13 Kts17.4 Kts26.6 °C24.4 °C0 mm1010.3 Hpa
15:04:15280 °(W)11.3 Kts13 Kts17.4 Kts26.6 °C24.4 °C0 mm1010.3 Hpa
14:59:30249 °(WSW)13 Kts13 Kts17.4 Kts26.4 °C24.2 °C0 mm1010.3 Hpa
14:54:15269 °(W)14.8 Kts12.2 Kts17.4 Kts26.4 °C24.3 °C0 mm1010.4 Hpa
14:49:29268 °(W)13 Kts12.2 Kts17.4 Kts26.6 °C24.5 °C0 mm1010.3 Hpa
14:44:08268 °(W)13 Kts12.2 Kts17.4 Kts26.7 °C24.7 °C0 mm1010.2 Hpa
14:39:33266 °(W)14.8 Kts11.3 Kts17.4 Kts26.7 °C24.7 °C0 mm1010.2 Hpa
14:34:08274 °(W)13.9 Kts13 Kts17.4 Kts26.4 °C24.2 °C0 mm1010.2 Hpa
14:29:26269 °(W)13.9 Kts13 Kts17.4 Kts26.2 °C24.1 °C0 mm1010.1 Hpa
14:24:11266 °(W)13 Kts12.2 Kts17.4 Kts26.4 °C24.3 °C0 mm1010.1 Hpa
14:19:27262 °(W)11.3 Kts11.3 Kts17.4 Kts26.5 °C24.6 °C0 mm1010.2 Hpa
14:14:09273 °(W)10.4 Kts11.3 Kts17.4 Kts26.4 °C24.4 °C0 mm1010.2 Hpa
14:09:22262 °(W)11.3 Kts12.2 Kts17.4 Kts26.4 °C24.4 °C0 mm1010.1 Hpa
14:04:06266 °(W)10.4 Kts12.2 Kts17.4 Kts26.2 °C24.2 °C0 mm1010 Hpa
13:59:23260 °(W)15.6 Kts13 Kts17.4 Kts26.4 °C24.1 °C0 mm1010 Hpa
13:54:06266 °(W)13 Kts12.2 Kts17.4 Kts26.4 °C24.4 °C0 mm1010 Hpa
13:49:11264 °(W)15.6 Kts11.3 Kts17.4 Kts26.6 °C24.6 °C0 mm1010.1 Hpa
13:44:16278 °(W)13 Kts12.2 Kts17.4 Kts26.2 °C24.2 °C0 mm1010.1 Hpa
13:39:21278 °(W)7.8 Kts13 Kts17.4 Kts26.5 °C24.3 °C0 mm1010 Hpa
13:34:07268 °(W)13.9 Kts13 Kts17.4 Kts26.6 °C24.4 °C0 mm1009.9 Hpa